createdAt,value
2022-10-01T00:00:40.173Z,13.00
2022-10-01T00:03:07.914Z,12.99
2022-10-01T00:05:35.475Z,12.98
2022-10-01T00:08:03.619Z,13.00
2022-10-01T00:10:31.620Z,13.02
2022-10-01T00:12:59.414Z,13.02
2022-10-01T00:15:27.686Z,13.05
2022-10-01T00:17:55.241Z,13.07
2022-10-01T00:20:23.014Z,13.08
2022-10-01T00:22:50.635Z,13.08
2022-10-01T00:25:18.327Z,13.08
2022-10-01T00:27:46.309Z,13.09
2022-10-01T00:30:13.966Z,13.11
2022-10-01T00:32:42.129Z,13.11
2022-10-01T00:35:10.450Z,13.12
2022-10-01T00:37:38.942Z,13.12
2022-10-01T00:40:06.553Z,13.12
2022-10-01T00:42:34.089Z,13.12
2022-10-01T00:45:02.845Z,13.12
2022-10-01T00:47:30.440Z,13.14
2022-10-01T00:49:59.510Z,13.15
2022-10-01T00:52:29.080Z,13.15
2022-10-01T00:54:56.870Z,13.14
2022-10-01T00:57:25.728Z,13.12
2022-10-01T00:59:53.638Z,13.11
2022-10-01T01:02:21.255Z,13.13
2022-10-01T01:04:49.189Z,13.12
2022-10-01T01:07:16.710Z,13.09
2022-10-01T01:09:44.838Z,13.10
2022-10-01T01:12:12.352Z,13.08
2022-10-01T01:14:39.933Z,13.10
2022-10-01T01:17:08.758Z,13.09
2022-10-01T01:19:36.302Z,13.12
2022-10-01T01:22:05.727Z,13.12
2022-10-01T01:24:33.218Z,13.10
2022-10-01T01:27:00.844Z,13.11
2022-10-01T01:29:28.436Z,13.11
2022-10-01T01:31:55.980Z,13.07
2022-10-01T01:34:24.099Z,13.00
2022-10-01T01:36:54.310Z,12.87
2022-10-01T01:39:21.801Z,12.65
2022-10-01T01:41:50.213Z,12.37
2022-10-01T01:44:18.088Z,12.10
2022-10-01T01:46:46.448Z,11.85
2022-10-01T01:49:17.780Z,11.67
2022-10-01T01:51:45.302Z,11.52
2022-10-01T01:54:12.783Z,11.38
2022-10-01T01:56:40.338Z,11.29
2022-10-01T01:59:08.729Z,11.19
2022-10-01T02:01:37.870Z,11.12
2022-10-01T02:04:05.723Z,11.06
2022-10-01T02:06:33.278Z,10.99
2022-10-01T02:09:00.804Z,10.94
2022-10-01T02:11:28.977Z,10.91
2022-10-01T02:13:56.596Z,10.87
2022-10-01T02:16:24.188Z,10.82
2022-10-01T02:18:51.763Z,10.79
2022-10-01T02:21:19.353Z,10.76
2022-10-01T02:23:47.272Z,10.74
2022-10-01T02:26:14.804Z,10.72
2022-10-01T02:28:42.805Z,10.71
2022-10-01T02:31:10.408Z,10.69
2022-10-01T02:33:38.106Z,10.67
2022-10-01T02:36:06.027Z,10.67
2022-10-01T02:38:33.554Z,10.67
2022-10-01T02:41:01.344Z,10.65
2022-10-01T02:43:29.824Z,10.67
2022-10-01T02:45:58.193Z,10.66
2022-10-01T02:48:27.667Z,10.68
2022-10-01T02:50:55.636Z,10.69
2022-10-01T02:53:23.223Z,10.71
2022-10-01T02:55:50.792Z,10.71
2022-10-01T02:58:18.244Z,10.71
2022-10-01T03:00:46.340Z,10.70
2022-10-01T03:03:13.854Z,10.70
2022-10-01T03:05:41.450Z,10.69
2022-10-01T03:08:09.036Z,10.67
2022-10-01T03:10:36.595Z,10.68
2022-10-01T03:13:07.841Z,10.65
2022-10-01T03:15:35.393Z,10.64
2022-10-01T03:18:03.016Z,10.63
2022-10-01T03:20:30.643Z,10.62
2022-10-01T03:22:58.165Z,10.61
2022-10-01T03:25:26.313Z,10.61
2022-10-01T03:27:53.947Z,10.59
2022-10-01T03:30:22.257Z,10.59
2022-10-01T03:32:49.807Z,10.58
2022-10-01T03:35:17.412Z,10.59
2022-10-01T03:37:44.959Z,10.60
2022-10-01T03:40:12.493Z,10.58
2022-10-01T03:42:40.095Z,10.58
2022-10-01T03:45:07.636Z,10.57
2022-10-01T03:47:35.157Z,10.57
2022-10-01T03:50:02.901Z,10.56
2022-10-01T03:52:30.444Z,10.57
2022-10-01T03:54:57.994Z,10.59
2022-10-01T03:57:26.094Z,10.58
2022-10-01T03:59:53.632Z,10.60
2022-10-01T04:02:22.388Z,10.60
2022-10-01T04:04:50.123Z,10.61
2022-10-01T04:07:17.661Z,10.61
2022-10-01T04:09:45.187Z,10.62
2022-10-01T04:12:12.778Z,10.64
2022-10-01T04:14:40.677Z,10.64
2022-10-01T04:17:08.268Z,10.66
2022-10-01T04:19:36.192Z,10.66
2022-10-01T04:22:03.739Z,10.67
2022-10-01T04:24:31.256Z,10.65
2022-10-01T04:26:59.187Z,10.65
2022-10-01T04:29:26.705Z,10.65
2022-10-01T04:31:55.236Z,10.67
2022-10-01T04:34:43.598Z,10.66
2022-10-01T04:37:11.472Z,10.67
2022-10-01T04:39:39.382Z,10.66
2022-10-01T04:42:06.958Z,10.67
2022-10-01T04:44:34.502Z,10.68
2022-10-01T04:47:02.160Z,10.69
2022-10-01T04:49:30.642Z,10.70
2022-10-01T04:51:58.177Z,10.72
2022-10-01T04:54:25.697Z,10.74
2022-10-01T04:56:53.299Z,10.77
2022-10-01T04:59:20.837Z,10.78
2022-10-01T05:01:50.276Z,10.80
2022-10-01T05:04:18.528Z,10.81
2022-10-01T05:06:46.099Z,10.84
2022-10-01T05:09:13.702Z,10.89
2022-10-01T05:11:41.314Z,10.95
2022-10-01T05:14:09.213Z,11.03
2022-10-01T05:16:37.787Z,11.13
2022-10-01T05:19:05.440Z,11.22
2022-10-01T05:21:33.279Z,11.30
2022-10-01T05:24:01.639Z,11.38
2022-10-01T05:26:30.118Z,11.42
2022-10-01T05:28:57.989Z,11.47
2022-10-01T05:31:25.598Z,11.52
2022-10-01T05:33:53.220Z,11.56
2022-10-01T05:36:20.722Z,11.61
2022-10-01T05:38:48.497Z,11.64
2022-10-01T05:41:16.297Z,11.70
2022-10-01T05:43:44.967Z,11.78
2022-10-01T05:46:13.019Z,11.82
2022-10-01T05:48:40.644Z,11.87
2022-10-01T05:51:08.754Z,11.91
2022-10-01T05:53:37.472Z,11.94
2022-10-01T05:56:05.066Z,11.96
2022-10-01T05:58:32.637Z,11.94
2022-10-01T06:01:00.230Z,11.88
2022-10-01T06:03:29.374Z,11.84
2022-10-01T06:05:57.037Z,11.84
2022-10-01T06:08:25.044Z,11.89
2022-10-01T06:10:52.667Z,11.87
2022-10-01T06:13:20.238Z,11.81
2022-10-01T06:15:48.212Z,11.74
2022-10-01T06:18:15.863Z,11.67
2022-10-01T06:20:43.462Z,11.65
2022-10-01T06:23:12.526Z,11.63
2022-10-01T06:25:40.258Z,11.65
2022-10-01T06:28:08.298Z,11.67
2022-10-01T06:30:37.017Z,11.71
2022-10-01T06:33:04.672Z,11.74
2022-10-01T06:35:32.281Z,11.70
2022-10-01T06:38:01.760Z,11.67
2022-10-01T06:40:30.523Z,11.66
2022-10-01T06:42:59.111Z,11.65
2022-10-01T06:45:26.831Z,11.63
2022-10-01T06:47:54.465Z,11.63
2022-10-01T06:50:23.446Z,11.63
2022-10-01T06:52:52.972Z,11.63
2022-10-01T06:55:20.657Z,11.62
2022-10-01T06:57:48.237Z,11.62
2022-10-01T07:00:15.986Z,11.63
2022-10-01T07:02:43.723Z,11.63
2022-10-01T07:05:12.945Z,11.64
2022-10-01T07:07:40.583Z,11.63
2022-10-01T07:10:08.349Z,11.64
2022-10-01T07:12:35.937Z,11.64
2022-10-01T07:15:03.902Z,11.64
2022-10-01T07:17:32.184Z,11.66
2022-10-01T07:19:59.892Z,11.66
2022-10-01T07:22:27.587Z,11.69
2022-10-01T07:24:55.346Z,11.69
2022-10-01T07:27:22.976Z,11.72
2022-10-01T07:29:51.474Z,11.76
2022-10-01T07:32:19.111Z,11.80
2022-10-01T07:34:46.719Z,11.82
2022-10-01T07:37:14.925Z,11.86
2022-10-01T07:39:43.047Z,11.89
2022-10-01T07:42:11.471Z,11.94
2022-10-01T07:44:39.286Z,12.01
2022-10-01T07:47:06.986Z,12.04
2022-10-01T07:49:34.835Z,12.04
2022-10-01T07:52:02.497Z,12.01
2022-10-01T07:54:30.825Z,12.02
2022-10-01T07:56:59.393Z,12.01
2022-10-01T07:59:27.590Z,11.99
2022-10-01T08:01:55.692Z,12.00
2022-10-01T08:04:41.015Z,12.01
2022-10-01T08:07:08.884Z,12.04
2022-10-01T08:09:36.570Z,12.03
2022-10-01T08:12:04.313Z,12.03
2022-10-01T08:14:32.139Z,12.05
2022-10-01T08:17:00.240Z,12.06
2022-10-01T08:19:29.476Z,12.09
2022-10-01T08:21:57.209Z,12.13
2022-10-01T08:24:25.161Z,12.14
2022-10-01T08:26:53.238Z,12.16
2022-10-01T08:29:21.585Z,12.18
2022-10-01T08:31:49.554Z,12.24
2022-10-01T08:34:17.367Z,12.33
2022-10-01T08:36:45.891Z,12.42
2022-10-01T08:39:13.894Z,12.48
2022-10-01T08:41:42.904Z,12.56
2022-10-01T08:44:10.899Z,12.68
2022-10-01T08:46:38.683Z,12.81
2022-10-01T08:49:06.410Z,12.89
2022-10-01T08:51:34.492Z,13.00
2022-10-01T08:54:02.691Z,13.10
2022-10-01T08:56:30.378Z,13.21
2022-10-01T08:58:58.235Z,13.33
2022-10-01T09:01:26.212Z,13.43
2022-10-01T09:03:54.055Z,13.47
2022-10-01T09:06:22.353Z,13.51
2022-10-01T09:08:50.561Z,13.56
2022-10-01T09:11:18.330Z,13.61
2022-10-01T09:13:50.051Z,13.68
2022-10-01T09:16:18.388Z,13.76
2022-10-01T09:18:46.823Z,13.84
2022-10-01T09:21:14.925Z,13.91
2022-10-01T09:23:43.315Z,13.99
2022-10-01T09:26:11.123Z,14.05
2022-10-01T09:28:38.942Z,14.14
2022-10-01T09:31:07.210Z,14.25
2022-10-01T09:33:35.451Z,14.32
2022-10-01T09:36:03.450Z,14.36
2022-10-01T09:38:31.321Z,14.37
2022-10-01T09:40:59.108Z,14.43
2022-10-01T09:43:27.477Z,14.57
2022-10-01T09:45:56.638Z,14.71
2022-10-01T09:48:24.524Z,14.92
2022-10-01T09:50:54.914Z,15.07
2022-10-01T09:53:22.733Z,15.19
2022-10-01T09:55:51.041Z,15.15
2022-10-01T09:58:19.416Z,15.10
2022-10-01T10:00:48.526Z,15.06
2022-10-01T10:03:16.434Z,15.03
2022-10-01T10:05:44.256Z,15.01
2022-10-01T10:08:13.118Z,15.05
2022-10-01T10:10:40.896Z,15.08
2022-10-01T10:13:09.774Z,15.08
2022-10-01T10:15:37.714Z,15.05
2022-10-01T10:18:06.536Z,15.00
2022-10-01T10:20:40.486Z,14.94
2022-10-01T10:23:08.569Z,14.91
2022-10-01T10:25:36.351Z,14.87
2022-10-01T10:28:05.436Z,14.76
2022-10-01T10:30:33.453Z,14.62
2022-10-01T10:33:01.892Z,14.43
2022-10-01T10:35:29.871Z,14.28
2022-10-01T10:37:57.586Z,14.16
2022-10-01T10:40:29.328Z,14.07
2022-10-01T10:42:57.883Z,13.98
2022-10-01T10:45:30.299Z,13.91
2022-10-01T10:47:58.371Z,13.84
2022-10-01T10:50:26.900Z,13.80
2022-10-01T10:52:54.743Z,13.80
2022-10-01T10:55:22.588Z,13.84
2022-10-01T10:57:54.379Z,13.90
2022-10-01T11:00:25.559Z,14.04
2022-10-01T11:02:53.463Z,14.15
2022-10-01T11:05:21.338Z,14.23
2022-10-01T11:07:49.126Z,14.45
2022-10-01T11:10:17.038Z,14.77
2022-10-01T11:12:46.987Z,15.07
2022-10-01T11:15:14.814Z,15.46
2022-10-01T11:17:42.755Z,15.91
2022-10-01T11:20:10.973Z,16.45
2022-10-01T11:22:39.259Z,16.96
2022-10-01T11:25:07.268Z,17.67
2022-10-01T11:27:36.376Z,18.43
2022-10-01T11:30:04.393Z,18.62
2022-10-01T11:32:34.320Z,18.74
2022-10-01T11:35:02.490Z,18.87
2022-10-01T11:37:30.499Z,18.71
2022-10-01T11:39:58.421Z,18.38
2022-10-01T11:42:27.936Z,18.63
2022-10-01T11:45:00.675Z,18.69
2022-10-01T11:47:29.290Z,18.81
2022-10-01T11:49:57.301Z,18.67
2022-10-01T11:52:25.069Z,18.30
2022-10-01T11:54:56.107Z,17.89
2022-10-01T11:57:42.099Z,17.63
2022-10-01T12:00:11.074Z,17.74
2022-10-01T12:02:38.869Z,17.76
2022-10-01T12:05:06.672Z,17.63
2022-10-01T12:07:34.994Z,17.62
2022-10-01T12:10:03.410Z,18.08
2022-10-01T12:12:31.302Z,18.61
2022-10-01T12:15:01.715Z,19.06
2022-10-01T12:17:33.448Z,19.42
2022-10-01T12:20:01.826Z,19.26
2022-10-01T12:22:31.669Z,19.13
2022-10-01T12:24:59.658Z,19.18
2022-10-01T12:27:27.723Z,18.93
2022-10-01T12:29:55.632Z,18.54
2022-10-01T12:32:23.908Z,18.09
2022-10-01T12:34:54.425Z,17.64
2022-10-01T12:37:22.431Z,16.96
2022-10-01T12:39:50.182Z,16.26
2022-10-01T12:42:18.205Z,15.62
2022-10-01T12:44:46.104Z,15.19
2022-10-01T12:47:14.428Z,14.87
2022-10-01T12:49:42.860Z,14.64
2022-10-01T12:52:10.673Z,14.60
2022-10-01T12:54:39.082Z,14.64
2022-10-01T12:57:07.343Z,14.69
2022-10-01T12:59:35.516Z,14.69
2022-10-01T13:02:03.837Z,14.67
2022-10-01T13:04:31.913Z,14.85
2022-10-01T13:06:59.717Z,15.07
2022-10-01T13:09:27.466Z,15.33
2022-10-01T13:11:55.707Z,15.65
2022-10-01T13:14:23.688Z,15.93
2022-10-01T13:16:54.551Z,16.25
2022-10-01T13:19:25.287Z,16.48
2022-10-01T13:21:53.593Z,16.53
2022-10-01T13:24:21.753Z,16.63
2022-10-01T13:26:49.977Z,16.80
2022-10-01T13:29:17.749Z,16.92
2022-10-01T13:31:45.559Z,17.10
2022-10-01T13:34:14.152Z,17.35
2022-10-01T13:36:42.467Z,17.45
2022-10-01T13:39:10.703Z,17.50
2022-10-01T13:41:39.002Z,17.59
2022-10-01T13:44:08.020Z,17.67
2022-10-01T13:46:35.993Z,17.69
2022-10-01T13:49:04.441Z,17.56
2022-10-01T13:51:33.762Z,17.44
2022-10-01T13:54:01.611Z,17.83
2022-10-01T13:56:30.107Z,18.40
2022-10-01T13:58:57.977Z,18.62
2022-10-01T14:01:26.338Z,18.56
2022-10-01T14:03:54.497Z,18.41
2022-10-01T14:06:22.468Z,18.19
2022-10-01T14:08:50.326Z,17.92
2022-10-01T14:11:50.332Z,17.68
2022-10-01T14:14:35.355Z,17.39
2022-10-01T14:17:03.487Z,17.30
2022-10-01T14:19:31.400Z,17.13
2022-10-01T14:21:59.938Z,16.80
2022-10-01T14:24:27.785Z,16.50
2022-10-01T14:26:55.700Z,16.24
2022-10-01T14:29:23.773Z,16.07
2022-10-01T14:31:51.736Z,15.95
2022-10-01T14:34:19.926Z,15.93
2022-10-01T14:36:47.795Z,15.90
2022-10-01T14:39:15.654Z,15.84
2022-10-01T14:41:43.819Z,15.82
2022-10-01T14:44:12.040Z,15.83
2022-10-01T14:46:40.539Z,15.87
2022-10-01T14:49:08.399Z,15.95
2022-10-01T14:51:36.308Z,16.20
2022-10-01T14:54:04.551Z,16.69
2022-10-01T14:56:32.629Z,17.18
2022-10-01T14:59:02.475Z,17.62
2022-10-01T15:01:30.521Z,18.05
2022-10-01T15:03:58.791Z,18.38
2022-10-01T15:06:27.942Z,18.65
2022-10-01T15:08:56.524Z,18.94
2022-10-01T15:11:24.605Z,19.13
2022-10-01T15:13:52.411Z,18.69
2022-10-01T15:16:20.402Z,18.15
2022-10-01T15:18:48.537Z,17.78
2022-10-01T15:21:16.374Z,18.11
2022-10-01T15:23:44.709Z,18.01
2022-10-01T15:26:12.599Z,17.55
2022-10-01T15:28:40.907Z,16.92
2022-10-01T15:31:09.581Z,16.42
2022-10-01T15:33:37.497Z,16.33
2022-10-01T15:36:05.900Z,17.01
2022-10-01T15:38:33.839Z,17.79
2022-10-01T15:41:19.767Z,18.36
2022-10-01T15:43:49.786Z,18.38
2022-10-01T15:46:17.965Z,18.02
2022-10-01T15:48:46.403Z,17.55
2022-10-01T15:51:14.259Z,17.05
2022-10-01T15:53:42.072Z,16.65
2022-10-01T15:56:10.837Z,16.39
2022-10-01T15:58:40.000Z,16.19
2022-10-01T16:01:09.473Z,16.02
2022-10-01T16:03:39.039Z,15.84
2022-10-01T16:06:06.952Z,15.69
2022-10-01T16:08:35.789Z,15.60
2022-10-01T16:11:04.616Z,15.52
2022-10-01T16:13:32.489Z,15.46
2022-10-01T16:16:00.482Z,15.41
2022-10-01T16:18:30.730Z,15.38
2022-10-01T16:20:58.906Z,15.31
2022-10-01T16:23:26.998Z,15.24
2022-10-01T16:25:54.818Z,15.20
2022-10-01T16:28:22.878Z,15.17
2022-10-01T16:30:50.783Z,15.13
2022-10-01T16:33:18.975Z,15.09
2022-10-01T16:35:47.459Z,15.06
2022-10-01T16:38:15.408Z,15.00
2022-10-01T16:40:43.576Z,14.93
2022-10-01T16:43:11.628Z,14.88
2022-10-01T16:45:39.533Z,14.82
2022-10-01T16:48:07.661Z,14.76
2022-10-01T16:50:35.487Z,14.69
2022-10-01T16:53:04.514Z,14.64
2022-10-01T16:55:36.730Z,14.59
2022-10-01T16:58:04.883Z,14.54
2022-10-01T17:00:33.076Z,14.47
2022-10-01T17:03:01.218Z,14.44
2022-10-01T17:05:29.044Z,14.43
2022-10-01T17:07:57.905Z,14.39
2022-10-01T17:10:26.183Z,14.35
2022-10-01T17:12:54.174Z,14.29
2022-10-01T17:15:23.392Z,14.28
2022-10-01T17:17:51.384Z,14.26
2022-10-01T17:20:19.292Z,14.24
2022-10-01T17:22:47.565Z,14.21
2022-10-01T17:25:15.492Z,14.19
2022-10-01T17:27:43.317Z,14.16
2022-10-01T17:30:11.123Z,14.15
2022-10-01T17:32:40.023Z,14.11
2022-10-01T17:35:08.341Z,14.09
2022-10-01T17:37:37.120Z,14.06
2022-10-01T17:40:05.082Z,14.03
2022-10-01T17:42:34.610Z,13.98
2022-10-01T17:45:02.455Z,13.94
2022-10-01T17:47:30.488Z,13.90
2022-10-01T17:49:58.752Z,13.88
2022-10-01T17:52:26.865Z,13.86
2022-10-01T17:54:54.823Z,13.84
2022-10-01T17:57:22.747Z,13.83
2022-10-01T17:59:52.250Z,13.82
2022-10-01T18:02:40.321Z,13.81
2022-10-01T18:05:09.719Z,13.80
2022-10-01T18:07:38.087Z,13.81
2022-10-01T18:10:06.484Z,13.82
2022-10-01T18:12:34.649Z,13.82
2022-10-01T18:15:02.591Z,13.84
2022-10-01T18:17:30.401Z,13.83
2022-10-01T18:19:58.559Z,13.83
2022-10-01T18:22:27.635Z,13.82
2022-10-01T18:24:55.834Z,13.81
2022-10-01T18:27:23.775Z,13.84
2022-10-01T18:29:51.616Z,13.85
2022-10-01T18:32:19.453Z,13.83
2022-10-01T18:34:47.730Z,13.83
2022-10-01T18:37:15.708Z,13.81
2022-10-01T18:39:43.456Z,13.78
2022-10-01T18:42:11.584Z,13.78
2022-10-01T18:44:39.581Z,13.76
2022-10-01T18:47:07.785Z,13.75
2022-10-01T18:49:35.982Z,13.72
2022-10-01T18:52:03.841Z,13.73
2022-10-01T18:54:33.930Z,13.73
2022-10-01T18:57:01.716Z,13.71
2022-10-01T18:59:29.633Z,13.70
2022-10-01T19:01:58.053Z,13.72
2022-10-01T19:04:25.785Z,13.73
2022-10-01T19:06:53.784Z,13.71
2022-10-01T19:09:21.606Z,13.68
2022-10-01T19:11:49.791Z,13.66
2022-10-01T19:14:17.968Z,13.65
2022-10-01T19:16:45.951Z,13.63
2022-10-01T19:19:13.817Z,13.60
2022-10-01T19:21:41.776Z,13.53
2022-10-01T19:24:10.017Z,13.50
2022-10-01T19:26:38.296Z,13.48
2022-10-01T19:29:06.482Z,13.49
2022-10-01T19:31:34.245Z,13.48
2022-10-01T19:34:02.228Z,13.48
2022-10-01T19:36:34.207Z,13.50
2022-10-01T19:39:02.730Z,13.49
2022-10-01T19:41:30.613Z,13.50
2022-10-01T19:43:58.471Z,13.49
2022-10-01T19:46:26.812Z,13.46
2022-10-01T19:48:57.338Z,13.44
2022-10-01T19:51:25.617Z,13.43
2022-10-01T19:53:56.680Z,13.43
2022-10-01T19:56:24.661Z,13.44
2022-10-01T19:58:52.555Z,13.43
2022-10-01T20:01:20.694Z,13.42
2022-10-01T20:03:49.126Z,13.40
2022-10-01T20:06:16.940Z,13.40
2022-10-01T20:08:44.806Z,13.35
2022-10-01T20:11:14.293Z,13.31
2022-10-01T20:13:42.157Z,13.26
2022-10-01T20:16:10.379Z,13.23
2022-10-01T20:18:38.383Z,13.18
2022-10-01T20:21:06.250Z,13.15
2022-10-01T20:23:34.066Z,13.14
2022-10-01T20:26:02.238Z,13.11
2022-10-01T20:28:30.487Z,13.09
2022-10-01T20:30:59.014Z,13.06
2022-10-01T20:33:27.040Z,13.02
2022-10-01T20:35:55.058Z,12.99
2022-10-01T20:38:23.325Z,12.94
2022-10-01T20:40:51.468Z,12.90
2022-10-01T20:43:19.388Z,12.86
2022-10-01T20:45:47.191Z,12.85
2022-10-01T20:48:15.260Z,12.84
2022-10-01T20:50:44.861Z,12.83
2022-10-01T20:53:13.618Z,12.81
2022-10-01T20:55:41.495Z,12.80
2022-10-01T20:58:09.303Z,12.79
2022-10-01T21:00:37.781Z,12.80
2022-10-01T21:03:05.750Z,12.81
2022-10-01T21:05:33.917Z,12.82
2022-10-01T21:08:02.379Z,12.86
2022-10-01T21:10:30.270Z,12.90
2022-10-01T21:12:58.173Z,12.93
2022-10-01T21:15:27.772Z,12.95
2022-10-01T21:17:57.355Z,12.95
2022-10-01T21:20:25.197Z,12.97
2022-10-01T21:22:52.973Z,12.98
2022-10-01T21:25:20.919Z,12.98
2022-10-01T21:27:48.931Z,12.98
2022-10-01T21:30:17.130Z,12.98
2022-10-01T21:32:44.974Z,12.98
2022-10-01T21:35:12.774Z,12.96
2022-10-01T21:37:40.853Z,12.94
2022-10-01T21:40:08.966Z,12.91
2022-10-01T21:42:36.986Z,12.88
2022-10-01T21:45:04.824Z,12.87
2022-10-01T21:47:32.583Z,12.86
2022-10-01T21:50:00.290Z,12.85
2022-10-01T21:52:28.259Z,12.86
2022-10-01T21:54:56.532Z,12.88
2022-10-01T21:57:24.277Z,12.87
2022-10-01T21:59:52.393Z,12.86
2022-10-01T22:02:20.806Z,12.88
2022-10-01T22:04:48.758Z,12.86
2022-10-01T22:07:17.423Z,12.86
2022-10-01T22:09:45.165Z,12.88
2022-10-01T22:12:12.910Z,12.90
2022-10-01T22:14:40.657Z,12.88
2022-10-01T22:17:08.760Z,12.87
2022-10-01T22:19:37.444Z,12.89
2022-10-01T22:22:05.513Z,12.90
2022-10-01T22:24:33.289Z,12.94
2022-10-01T22:27:00.990Z,12.96
2022-10-01T22:29:28.710Z,12.99
2022-10-01T22:31:57.000Z,13.02
2022-10-01T22:34:24.671Z,13.03
2022-10-01T22:36:52.319Z,13.03
2022-10-01T22:39:20.150Z,13.06
2022-10-01T22:41:48.116Z,13.08
2022-10-01T22:44:16.723Z,13.09
2022-10-01T22:46:44.503Z,13.10
2022-10-01T22:49:12.337Z,13.09
2022-10-01T22:51:40.174Z,13.08
2022-10-01T22:54:07.970Z,13.06
2022-10-01T22:56:36.799Z,13.05
2022-10-01T22:59:04.617Z,13.07
2022-10-01T23:01:32.444Z,13.06
2022-10-01T23:04:00.233Z,13.04
2022-10-01T23:06:27.867Z,13.02
2022-10-01T23:08:55.605Z,13.02
2022-10-01T23:11:23.280Z,13.03
2022-10-01T23:13:50.982Z,13.05
2022-10-01T23:16:18.786Z,13.03
2022-10-01T23:18:47.399Z,13.03
2022-10-01T23:21:15.418Z,13.05
2022-10-01T23:23:43.200Z,13.05
2022-10-01T23:26:11.137Z,13.06
2022-10-01T23:28:39.477Z,13.05
2022-10-01T23:31:07.353Z,13.07
2022-10-01T23:33:35.004Z,13.08
2022-10-01T23:36:02.688Z,13.07
2022-10-01T23:38:30.836Z,13.08
2022-10-01T23:40:58.472Z,13.10
2022-10-01T23:43:26.390Z,13.11
2022-10-01T23:45:54.451Z,13.11
2022-10-01T23:48:22.064Z,13.12
2022-10-01T23:50:50.045Z,13.15
2022-10-01T23:53:17.647Z,13.16
2022-10-01T23:56:03.082Z,13.19
2022-10-01T23:58:30.990Z,13.20
